KDLF/DLF METAR and TAF weather

Enter ICAO airport designator
Station Type Date Time Source
KDLF METAR 2018/04/19 12:55 UTC NOAA

KDLF 191255Z 00000KT 10SM BKN090 BKN230 14/00 A3024 RMK AO2A SLP232 T01390002


Station Type Date Time Source
KDLF Decoded METAR 2018/04/19 12:55 UTC NOAA

Laughlin, Laughlin Air Force Base Auxiliary Airfield, TX, United States (KDLF) 29-07-00N 100-28-00W 294M
Apr 19, 2018 - 08:55 AM EDT / 2018.04.19 1255 UTC
Wind: Calm:0
Visibility: 10 mile(s):0
Sky conditions: mostly cloudy
Temperature: 57.0 F (13.9 C)
Dew Point: 32.4 F (0.2 C)
Relative Humidity: 39%
Pressure (altimeter): 30.24 in. Hg (1024 hPa)
ob: KDLF 191255Z 00000KT 10SM BKN090 BKN230 14/00 A3024 RMK AO2A SLP232 T01390002
cycle: 13

Station Type Date Time Source
KDLF TAF 2018/04/19 10:12 UTC NOAA

TAF KDLF 191000Z 1910/2016 07009KT 9999 FEW055 SCT250 QNH3014INS
BECMG 1916/1917 13012G20KT 9999 BKN070 BKN250 QNH3020INS
BECMG 2001/2002 14012KT 9999 BKN040 BKN200 QNH3010INS
BECMG 2012/2013 13012G20KT 9999 BKN040 OVC120 QNH3012INS TX27/1921Z TN10/1912Z


Example: see airport list